aviador You're here:

KLOR Decoded Metar

LOWE AHP/FT. RUC in AL, USA
Report Time2018-07-18 10:13:00
UTC Time2018-07-18 10:57:50
Flight Rules ifr IFR
Wind270° at 05 kt
W.Decomp.*RWY 24: 4.2 kt HW 2.7 kt RCW
RWY 36: 0.3 kt HW 5 kt LCW
W.Rank270° ranks 26
Current wind is below 270° avg. (5.8)
Visibility9999 m
Phenomena:N/A
Clouds:Overcast 006 Hf
Expected CloudBase > 400 ft AGL from Temp-Dew spread
Ceiling600 ft
Temp24°C (ISA +9)
Dew Point23°C (94% RH)
QNH1015 hPa
Density Alt1,647 ft
Elevation243 ft
Report Wrong Elevation
Raw Report
KLOR 181013Z AUTO 27005KT 10SM OVC006 24/23 A2998 RMK AO2
SLP133=

Extra information for KLOR:More info

Metar Taf Metar & Taf Last 4 Metars F.Rules Stats Wind Profile Meteogram Temp Stats Airport Information Weather charts Add Link Nearby VenuesMetar ALERT Operation Metar Decoded Social comments

AIRNAV info for KLOR